UMOO

Details ICAO UMOO (MVQ)
Name Mogilev
Region Belarus and Russia (Kaliningrad Oblast)
Timezone Europe/Minsk (UTC+3.0)
Plans Departing 15
Arriving 13
Stats Elevation 636 ft / 194 m (AMSL)
Location 53.955295° 30.094527°
Runways 1
Magnetic Variation 8.614° E
Sunrise 2018-05-22 01:48:02 UTC / 2018-05-22 04:48:02 Local
Sunset 2018-05-22 18:07:23 UTC / 2018-05-22 21:07:23 Local
Advertisement - Login to hide

Runways

ID Width Length Bearing (true) Bearing (mag) Surface Threshold Offset Overrun Length
13 138 ft / 42 m 8,499 ft / 2,591 m 136.75° 128.14° Asphalt 0 ft / 0 m 0 ft / 0 m
31 138 ft / 42 m 8,499 ft / 2,591 m 316.78° 308.17° Asphalt 0 ft / 0 m 0 ft / 0 m

Approach Navaids

Runway Type Ident Frequency Range Bearing (true) Bearing (mag) Slope Elevation
13 Localiser IUF 111.10 MHz 18 nm / 33 km 133.93° 125.32° - 636 ft / 194 m (AMSL)
13 Glidescope IUF 111.10 MHz 10 nm / 19 km 136.76° 128.15° 2.80° 636 ft / 194 m (AMSL)

Map

Weather


0- 5 10 15 20 25 30 35+ Temperature / ° C

Clouds and Precipitation
Forecast for 2018-05-22 06:00 UTC. Updated 2 hours ago

Ground ~20,000 ft ~40,000 ft Winds

METAR

UMOO 220700Z 05003MPS 9999 BKN012 OVC/// 12/10 Q1022 R13/290068 NOSIG

TAF

Not found

Frequencies

Approach 127.10 MHz APP
Warning: Do not use this data for real-world aviation or navigation. No guarantee of current accuracy is given.